createdAt,value
2022-11-15T00:01:57.217Z,11.00
2022-11-15T00:04:23.968Z,9.67
2022-11-15T00:06:50.141Z,10.50
2022-11-15T00:09:16.316Z,11.27
2022-11-15T00:11:42.447Z,14.07
2022-11-15T00:14:08.762Z,12.43
2022-11-15T00:16:34.913Z,11.13
2022-11-15T00:19:01.011Z,9.87
2022-11-15T00:21:27.771Z,10.70
2022-11-15T00:23:53.932Z,17.53
2022-11-15T00:26:20.093Z,11.10
2022-11-15T00:28:46.227Z,13.03
2022-11-15T00:31:13.948Z,10.33
2022-11-15T00:33:40.100Z,14.57
2022-11-15T00:36:09.325Z,10.17
2022-11-15T00:38:37.785Z,13.57
2022-11-15T00:41:09.131Z,14.77
2022-11-15T00:43:36.017Z,15.03
2022-11-15T00:46:02.516Z,9.67
2022-11-15T00:48:28.899Z,9.93
2022-11-15T00:50:55.038Z,12.00
2022-11-15T00:53:21.200Z,9.60
2022-11-15T00:55:48.002Z,9.03
2022-11-15T00:58:14.208Z,10.07
2022-11-15T01:00:40.406Z,10.77
2022-11-15T01:03:06.579Z,10.80
2022-11-15T01:05:32.803Z,12.17
2022-11-15T01:07:58.928Z,14.47
2022-11-15T01:10:26.036Z,12.17
2022-11-15T01:12:52.800Z,11.07
2022-11-15T01:15:18.958Z,12.50
2022-11-15T01:17:45.094Z,13.27
2022-11-15T01:20:12.087Z,9.53
2022-11-15T01:22:38.235Z,9.87
2022-11-15T01:25:04.779Z,12.93
2022-11-15T01:27:30.890Z,14.67
2022-11-15T01:29:57.672Z,10.37
2022-11-15T01:32:23.887Z,13.20
2022-11-15T01:34:50.015Z,8.33
2022-11-15T01:37:16.111Z,14.57
2022-11-15T01:39:42.265Z,13.03
2022-11-15T01:42:10.850Z,13.40
2022-11-15T01:44:44.892Z,8.60
2022-11-15T01:47:15.059Z,11.60
2022-11-15T01:49:47.396Z,11.77
2022-11-15T01:52:16.909Z,8.83
2022-11-15T01:54:43.308Z,11.27
2022-11-15T01:57:11.030Z,12.10
2022-11-15T01:59:38.108Z,15.60
2022-11-15T02:02:04.381Z,11.40
2022-11-15T02:04:33.542Z,11.77
2022-11-15T02:07:00.671Z,10.73
2022-11-15T02:09:26.990Z,11.03
2022-11-15T02:11:54.415Z,13.27
2022-11-15T02:14:20.720Z,9.73
2022-11-15T02:16:50.736Z,10.63
2022-11-15T02:19:30.242Z,10.93
2022-11-15T02:22:05.740Z,10.17
2022-11-15T02:24:46.180Z,12.40
2022-11-15T02:27:35.600Z,10.50
2022-11-15T02:30:17.957Z,14.03
2022-11-15T02:32:46.527Z,15.07
2022-11-15T02:35:19.000Z,12.93
2022-11-15T02:37:50.299Z,13.93
2022-11-15T02:40:25.536Z,12.47
2022-11-15T02:43:12.953Z,12.20
2022-11-15T02:45:47.634Z,9.63
2022-11-15T02:48:14.911Z,16.43
2022-11-15T02:50:41.412Z,11.00
2022-11-15T02:53:09.229Z,11.37
2022-11-15T02:55:36.818Z,12.03
2022-11-15T02:58:19.908Z,14.57
2022-11-15T03:00:51.877Z,13.87
2022-11-15T03:03:30.153Z,13.80
2022-11-15T03:06:04.675Z,9.83
2022-11-15T03:08:33.304Z,12.37
2022-11-15T03:11:04.551Z,11.70
2022-11-15T03:13:36.173Z,9.73
2022-11-15T03:16:05.150Z,13.30
2022-11-15T03:18:33.699Z,8.37
2022-11-15T03:21:01.682Z,12.87
2022-11-15T03:23:30.229Z,10.87
2022-11-15T03:25:57.206Z,9.33
2022-11-15T03:28:25.952Z,12.33
2022-11-15T03:30:53.560Z,11.93
2022-11-15T03:33:21.922Z,16.43
2022-11-15T03:35:48.653Z,9.70
2022-11-15T03:38:18.088Z,11.27
2022-11-15T03:40:48.450Z,8.77
2022-11-15T03:43:20.839Z,12.53
2022-11-15T03:45:51.073Z,9.63
2022-11-15T03:48:19.272Z,9.70
2022-11-15T03:50:46.336Z,10.33
2022-11-15T03:53:12.953Z,14.33
2022-11-15T03:55:39.115Z,10.80
2022-11-15T03:58:05.239Z,7.70
2022-11-15T04:00:31.452Z,10.23
2022-11-15T04:02:57.653Z,9.00
2022-11-15T04:05:23.956Z,8.97
2022-11-15T04:07:50.880Z,8.07
2022-11-15T04:10:17.234Z,7.27
2022-11-15T04:12:46.518Z,10.03
2022-11-15T04:15:14.452Z,7.73
2022-11-15T04:17:42.519Z,9.30
2022-11-15T04:20:29.455Z,9.63
2022-11-15T04:23:15.039Z,11.27
2022-11-15T04:25:41.909Z,9.47
2022-11-15T04:28:08.040Z,7.47
2022-11-15T04:30:36.232Z,8.13
2022-11-15T04:33:02.381Z,7.73
2022-11-15T04:35:28.931Z,5.63
2022-11-15T04:37:55.781Z,10.23
2022-11-15T04:40:22.025Z,8.97
2022-11-15T04:42:48.188Z,9.63
2022-11-15T04:45:14.579Z,8.70
2022-11-15T04:47:41.104Z,6.97
2022-11-15T04:50:07.823Z,9.27
2022-11-15T04:52:34.066Z,9.67
2022-11-15T04:55:06.665Z,8.63
2022-11-15T04:57:34.211Z,7.07
2022-11-15T05:00:00.394Z,8.00
2022-11-15T05:02:46.784Z,9.70
2022-11-15T05:05:12.855Z,6.57
2022-11-15T05:07:39.007Z,8.43
2022-11-15T05:10:06.445Z,9.10
2022-11-15T05:12:32.613Z,9.33
2022-11-15T05:15:01.775Z,10.30
2022-11-15T05:17:28.043Z,10.00
2022-11-15T05:19:54.206Z,11.93
2022-11-15T05:22:20.795Z,10.17
2022-11-15T05:24:46.941Z,11.00
2022-11-15T05:27:13.739Z,8.07
2022-11-15T05:29:39.886Z,10.43
2022-11-15T05:32:06.729Z,8.30
2022-11-15T05:34:33.345Z,10.57
2022-11-15T05:37:00.000Z,12.77
2022-11-15T05:39:26.268Z,9.10
2022-11-15T05:41:54.234Z,8.40
2022-11-15T05:44:22.878Z,9.87
2022-11-15T05:46:50.009Z,8.00
2022-11-15T05:49:18.855Z,10.10
2022-11-15T05:51:46.272Z,8.00
2022-11-15T05:54:12.474Z,7.90
2022-11-15T05:56:38.860Z,9.00
2022-11-15T05:59:05.111Z,7.27
2022-11-15T06:01:32.042Z,10.10
2022-11-15T06:03:58.219Z,6.97
2022-11-15T06:06:24.449Z,6.87
2022-11-15T06:08:50.579Z,7.60
2022-11-15T06:11:16.730Z,7.30
2022-11-15T06:13:42.888Z,8.03
2022-11-15T06:16:09.059Z,6.13
2022-11-15T06:18:36.202Z,8.13
2022-11-15T06:21:02.536Z,6.67
2022-11-15T06:23:29.267Z,6.80
2022-11-15T06:25:58.669Z,6.87
2022-11-15T06:28:24.800Z,8.70
2022-11-15T06:30:53.328Z,8.17
2022-11-15T06:33:19.654Z,5.50
2022-11-15T06:35:46.473Z,6.33
2022-11-15T06:38:12.810Z,6.77
2022-11-15T06:40:39.563Z,9.60
2022-11-15T06:43:06.352Z,5.83
2022-11-15T06:45:32.788Z,7.00
2022-11-15T06:47:58.996Z,6.10
2022-11-15T06:50:25.396Z,7.10
2022-11-15T06:52:52.317Z,8.93
2022-11-15T06:55:18.513Z,5.20
2022-11-15T06:57:48.251Z,9.83
2022-11-15T07:00:16.084Z,7.13
2022-11-15T07:02:42.233Z,8.70
2022-11-15T07:05:08.675Z,7.40
2022-11-15T07:07:34.842Z,6.60
2022-11-15T07:10:01.624Z,8.03
2022-11-15T07:12:27.799Z,5.40
2022-11-15T07:14:53.979Z,7.13
2022-11-15T07:17:20.135Z,4.10
2022-11-15T07:19:46.283Z,3.80
2022-11-15T07:22:12.476Z,5.57
2022-11-15T07:24:38.619Z,8.93
2022-11-15T07:27:05.406Z,3.70
2022-11-15T07:29:31.570Z,4.60
2022-11-15T07:31:57.856Z,6.40
2022-11-15T07:34:24.140Z,6.50
2022-11-15T07:36:50.337Z,5.43
2022-11-15T07:39:16.488Z,6.33
2022-11-15T07:41:43.633Z,5.47
2022-11-15T07:44:10.422Z,4.87
2022-11-15T07:46:36.612Z,6.73
2022-11-15T07:49:02.780Z,10.53
2022-11-15T07:51:28.962Z,6.43
2022-11-15T07:53:55.093Z,4.33
2022-11-15T07:56:21.279Z,6.30
2022-11-15T07:58:47.401Z,5.33
2022-11-15T08:01:14.295Z,5.10
2022-11-15T08:03:40.619Z,5.40
2022-11-15T08:06:06.872Z,4.00
2022-11-15T08:08:33.090Z,5.43
2022-11-15T08:10:59.743Z,3.50
2022-11-15T08:13:25.983Z,12.67
2022-11-15T08:15:57.390Z,5.47
2022-11-15T08:18:25.060Z,5.00
2022-11-15T08:20:51.194Z,6.20
2022-11-15T08:23:17.331Z,4.50
2022-11-15T08:25:43.771Z,6.23
2022-11-15T08:28:10.982Z,4.17
2022-11-15T08:30:38.875Z,6.20
2022-11-15T08:33:05.227Z,6.53
2022-11-15T08:35:32.061Z,4.90
2022-11-15T08:37:58.180Z,4.43
2022-11-15T08:40:24.335Z,3.53
2022-11-15T08:42:50.466Z,4.47
2022-11-15T08:45:16.844Z,6.63
2022-11-15T08:47:42.984Z,2.73
2022-11-15T08:50:09.632Z,4.10
2022-11-15T08:52:36.497Z,4.20
2022-11-15T08:55:02.892Z,4.77
2022-11-15T08:57:29.609Z,4.10
2022-11-15T08:59:55.735Z,2.57
2022-11-15T09:02:21.857Z,3.87
2022-11-15T09:04:48.316Z,3.83
2022-11-15T09:07:14.681Z,4.17
2022-11-15T09:09:41.594Z,7.13
2022-11-15T09:12:08.448Z,9.20
2022-11-15T09:14:35.015Z,2.90
2022-11-15T09:17:01.665Z,3.97
2022-11-15T09:19:28.066Z,2.60
2022-11-15T09:21:54.603Z,4.00
2022-11-15T09:24:21.115Z,2.47
2022-11-15T09:26:50.210Z,7.70
2022-11-15T09:29:16.401Z,2.03
2022-11-15T09:31:42.988Z,3.07
2022-11-15T09:34:09.238Z,3.80
2022-11-15T09:36:35.525Z,2.10
2022-11-15T09:39:01.651Z,1.93
2022-11-15T09:41:49.355Z,2.83
2022-11-15T09:44:45.884Z,2.30
2022-11-15T09:47:30.279Z,4.83
2022-11-15T09:49:59.551Z,1.47
2022-11-15T09:52:25.909Z,1.87
2022-11-15T09:54:54.732Z,4.73
2022-11-15T09:57:25.540Z,3.90
2022-11-15T10:00:30.989Z,2.87
2022-11-15T10:03:12.104Z,2.30
2022-11-15T10:05:40.642Z,2.80
2022-11-15T10:08:16.594Z,3.33
2022-11-15T10:10:45.633Z,2.13
2022-11-15T10:13:15.371Z,2.27
2022-11-15T10:15:45.475Z,1.93
2022-11-15T10:18:18.625Z,2.00
2022-11-15T10:20:49.695Z,3.40
2022-11-15T10:23:18.201Z,2.87
2022-11-15T10:25:44.415Z,3.53
2022-11-15T10:28:14.490Z,1.63
2022-11-15T10:30:42.438Z,3.60
2022-11-15T10:33:25.036Z,3.40
2022-11-15T10:36:15.323Z,2.27
2022-11-15T10:38:52.926Z,2.50
2022-11-15T10:41:21.260Z,1.23
2022-11-15T10:44:03.609Z,3.27
2022-11-15T10:46:46.031Z,4.20
2022-11-15T10:49:15.336Z,1.27
2022-11-15T10:51:44.880Z,2.70
2022-11-15T10:54:17.122Z,9.63
2022-11-15T10:56:49.797Z,8.17
2022-11-15T10:59:18.737Z,6.70
2022-11-15T11:01:48.773Z,2.23
2022-11-15T11:04:15.610Z,2.50
2022-11-15T11:06:49.601Z,4.53
2022-11-15T11:09:31.353Z,5.50
2022-11-15T11:11:57.701Z,2.00
2022-11-15T11:14:27.263Z,3.13
2022-11-15T11:16:56.332Z,4.07
2022-11-15T11:19:52.605Z,4.20
2022-11-15T11:22:23.948Z,4.27
2022-11-15T11:24:57.703Z,3.63
2022-11-15T11:27:35.605Z,3.27
2022-11-15T11:30:07.204Z,1.37
2022-11-15T11:33:01.660Z,2.20
2022-11-15T11:35:31.320Z,3.00
2022-11-15T11:38:06.852Z,4.30
2022-11-15T11:40:37.933Z,3.83
2022-11-15T11:43:09.648Z,3.83
2022-11-15T11:45:53.124Z,1.27
2022-11-15T11:48:40.257Z,2.57
2022-11-15T11:51:13.687Z,4.63
2022-11-15T11:53:43.521Z,4.73
2022-11-15T11:56:17.295Z,1.93
2022-11-15T11:58:44.825Z,4.97
2022-11-15T12:01:14.653Z,0.80
2022-11-15T12:03:43.831Z,3.60
2022-11-15T12:06:18.940Z,2.10
2022-11-15T12:08:49.563Z,2.87
2022-11-15T12:11:19.974Z,5.37
2022-11-15T12:13:49.704Z,2.60
2022-11-15T12:16:18.383Z,5.47
2022-11-15T12:18:48.331Z,3.03
2022-11-15T12:21:23.999Z,4.90
2022-11-15T12:23:56.447Z,1.17
2022-11-15T12:26:26.615Z,3.13
2022-11-15T12:29:09.388Z,2.97
2022-11-15T12:31:38.815Z,4.57
2022-11-15T12:34:15.960Z,2.93
2022-11-15T12:36:43.838Z,4.13
2022-11-15T12:39:10.933Z,4.20
2022-11-15T12:41:38.280Z,1.23
2022-11-15T12:44:05.603Z,4.30
2022-11-15T12:47:00.960Z,1.43
2022-11-15T12:49:44.471Z,2.50
2022-11-15T12:52:11.349Z,1.47
2022-11-15T12:55:02.058Z,1.70
2022-11-15T12:57:38.801Z,5.07
2022-11-15T13:00:44.379Z,3.70
2022-11-15T13:03:27.846Z,5.07
2022-11-15T13:06:08.088Z,2.20
2022-11-15T13:08:40.384Z,4.60
2022-11-15T13:11:39.899Z,3.53
2022-11-15T13:14:46.825Z,6.30
2022-11-15T13:17:30.955Z,2.40
2022-11-15T13:20:27.933Z,5.07
2022-11-15T13:23:02.347Z,5.30
2022-11-15T13:25:44.233Z,3.80
2022-11-15T13:28:17.963Z,5.50
2022-11-15T13:30:50.963Z,3.63
2022-11-15T13:33:19.406Z,4.93
2022-11-15T13:35:47.226Z,2.83
2022-11-15T13:38:27.324Z,2.43
2022-11-15T13:40:54.531Z,1.93
2022-11-15T13:43:28.603Z,3.33
2022-11-15T13:46:05.765Z,2.07
2022-11-15T13:48:34.186Z,4.27
2022-11-15T13:51:00.752Z,2.40
2022-11-15T13:53:27.008Z,4.57
2022-11-15T13:55:54.984Z,2.53
2022-11-15T13:58:24.123Z,4.13
2022-11-15T14:00:59.745Z,5.37
2022-11-15T14:03:28.251Z,1.90
2022-11-15T14:06:06.596Z,4.43
2022-11-15T14:08:33.265Z,8.97
2022-11-15T14:11:14.203Z,1.97
2022-11-15T14:13:40.447Z,1.00
2022-11-15T14:16:14.636Z,2.63
2022-11-15T14:18:43.955Z,2.67
2022-11-15T14:21:10.717Z,3.20
2022-11-15T14:23:36.899Z,7.63
2022-11-15T14:26:07.475Z,3.87
2022-11-15T14:28:39.475Z,2.40
2022-11-15T14:31:12.502Z,5.10
2022-11-15T14:33:39.171Z,2.23
2022-11-15T14:36:10.781Z,3.90
2022-11-15T14:38:36.921Z,3.07
2022-11-15T14:41:03.473Z,2.27
2022-11-15T14:43:29.603Z,5.60
2022-11-15T14:45:56.640Z,3.00
2022-11-15T14:48:22.794Z,2.87
2022-11-15T14:50:49.176Z,5.00
2022-11-15T14:53:16.911Z,8.10
2022-11-15T14:55:43.056Z,2.53
2022-11-15T14:58:09.621Z,4.37
2022-11-15T15:00:36.636Z,4.97
2022-11-15T15:03:04.228Z,5.27
2022-11-15T15:05:33.250Z,4.30
2022-11-15T15:07:59.884Z,2.60
2022-11-15T15:10:43.624Z,3.50
2022-11-15T15:13:17.054Z,3.47
2022-11-15T15:15:43.302Z,4.70
2022-11-15T15:18:11.468Z,3.23
2022-11-15T15:20:39.767Z,4.53
2022-11-15T15:23:06.129Z,2.83
2022-11-15T15:25:33.706Z,2.00
2022-11-15T15:28:00.554Z,4.33
2022-11-15T15:30:28.601Z,4.00
2022-11-15T15:32:55.115Z,4.00
2022-11-15T15:35:22.264Z,1.90
2022-11-15T15:37:49.889Z,2.50
2022-11-15T15:40:17.539Z,4.23
2022-11-15T15:42:44.123Z,6.70
2022-11-15T15:45:10.770Z,2.10
2022-11-15T15:47:37.679Z,3.67
2022-11-15T15:50:04.735Z,4.03
2022-11-15T15:52:31.492Z,3.70
2022-11-15T15:54:57.593Z,5.83
2022-11-15T15:57:23.773Z,3.50
2022-11-15T15:59:49.899Z,2.93
2022-11-15T16:02:16.017Z,4.90
2022-11-15T16:04:42.142Z,7.03
2022-11-15T16:07:16.327Z,2.00
2022-11-15T16:10:01.283Z,8.90
2022-11-15T16:12:27.661Z,4.97
2022-11-15T16:14:53.853Z,5.03
2022-11-15T16:17:21.759Z,1.70
2022-11-15T16:19:47.910Z,1.93
2022-11-15T16:22:14.203Z,3.10
2022-11-15T16:24:40.383Z,4.20
2022-11-15T16:27:13.012Z,2.43
2022-11-15T16:29:39.144Z,4.97
2022-11-15T16:32:05.263Z,3.50
2022-11-15T16:34:34.884Z,2.00
2022-11-15T16:37:03.533Z,5.10
2022-11-15T16:39:30.110Z,4.77
2022-11-15T16:41:56.342Z,2.10
2022-11-15T16:44:24.033Z,2.93
2022-11-15T16:46:51.248Z,2.07
2022-11-15T16:49:18.044Z,1.90
2022-11-15T16:51:45.773Z,2.53
2022-11-15T16:54:11.907Z,2.63
2022-11-15T16:56:38.483Z,2.20
2022-11-15T16:59:05.188Z,3.27
2022-11-15T17:01:34.571Z,2.40
2022-11-15T17:04:11.614Z,3.77
2022-11-15T17:06:38.360Z,1.60
2022-11-15T17:09:04.510Z,1.60
2022-11-15T17:11:30.754Z,2.87
2022-11-15T17:13:57.518Z,4.00
2022-11-15T17:16:23.716Z,3.90
2022-11-15T17:18:51.451Z,6.60
2022-11-15T17:21:19.589Z,1.80
2022-11-15T17:23:46.158Z,1.90
2022-11-15T17:26:32.211Z,1.90
2022-11-15T17:29:00.705Z,3.30
2022-11-15T17:31:29.342Z,1.77
2022-11-15T17:33:56.148Z,2.00
2022-11-15T17:36:22.352Z,2.80
2022-11-15T17:38:53.335Z,2.13
2022-11-15T17:41:22.791Z,2.20
2022-11-15T17:43:49.238Z,2.60
2022-11-15T17:46:16.860Z,3.30
2022-11-15T17:48:43.521Z,7.47
2022-11-15T17:51:11.951Z,2.30
2022-11-15T17:53:40.589Z,2.33
2022-11-15T17:56:09.043Z,1.73
2022-11-15T17:58:35.440Z,2.10
2022-11-15T18:01:06.073Z,3.57
2022-11-15T18:03:34.131Z,2.23
2022-11-15T18:06:00.607Z,3.37
2022-11-15T18:08:27.370Z,2.87
2022-11-15T18:11:01.793Z,3.60
2022-11-15T18:13:27.961Z,2.23
2022-11-15T18:15:54.772Z,2.07
2022-11-15T18:18:20.926Z,2.10
2022-11-15T18:20:47.049Z,2.43
2022-11-15T18:23:13.225Z,4.80
2022-11-15T18:25:40.053Z,4.47
2022-11-15T18:28:06.224Z,3.33
2022-11-15T18:30:32.624Z,3.50
2022-11-15T18:32:58.815Z,2.57
2022-11-15T18:35:24.981Z,3.07
2022-11-15T18:37:51.187Z,3.43
2022-11-15T18:40:17.500Z,6.57
2022-11-15T18:42:44.301Z,3.03
2022-11-15T18:45:10.654Z,2.80
2022-11-15T18:47:37.130Z,4.63
2022-11-15T18:50:03.491Z,3.03
2022-11-15T18:52:29.780Z,4.37
2022-11-15T18:54:55.930Z,3.70
2022-11-15T18:57:22.064Z,5.17
2022-11-15T18:59:49.044Z,6.37
2022-11-15T19:02:15.268Z,6.67
2022-11-15T19:04:41.517Z,5.03
2022-11-15T19:07:07.782Z,6.93
2022-11-15T19:09:34.584Z,7.33
2022-11-15T19:12:00.795Z,4.87
2022-11-15T19:14:27.951Z,4.53
2022-11-15T19:16:55.269Z,4.33
2022-11-15T19:19:23.027Z,6.47
2022-11-15T19:21:49.305Z,5.77
2022-11-15T19:24:15.687Z,6.43
2022-11-15T19:26:42.187Z,7.87
2022-11-15T19:29:09.728Z,9.67
2022-11-15T19:31:36.016Z,5.70
2022-11-15T19:34:04.068Z,4.20
2022-11-15T19:36:31.856Z,12.10
2022-11-15T19:38:59.348Z,9.73
2022-11-15T19:41:26.244Z,5.97
2022-11-15T19:43:52.752Z,5.03
2022-11-15T19:46:21.054Z,5.40
2022-11-15T19:48:47.808Z,7.07
2022-11-15T19:51:15.937Z,5.37
2022-11-15T19:53:42.665Z,6.83
2022-11-15T19:56:11.523Z,8.23
2022-11-15T19:58:38.315Z,6.30
2022-11-15T20:01:06.137Z,4.77
2022-11-15T20:03:34.183Z,5.40
2022-11-15T20:06:02.522Z,4.83
2022-11-15T20:08:29.948Z,10.03
2022-11-15T20:10:56.295Z,5.07
2022-11-15T20:13:22.529Z,4.47
2022-11-15T20:15:48.773Z,5.00
2022-11-15T20:18:15.000Z,5.63
2022-11-15T20:20:41.266Z,6.03
2022-11-15T20:23:07.439Z,4.90
2022-11-15T20:25:37.199Z,6.30
2022-11-15T20:28:03.781Z,6.17
2022-11-15T20:30:29.987Z,6.50
2022-11-15T20:32:56.285Z,6.47
2022-11-15T20:35:22.536Z,5.60
2022-11-15T20:37:48.811Z,5.37
2022-11-15T20:40:15.216Z,7.20
2022-11-15T20:42:41.962Z,5.83
2022-11-15T20:45:08.708Z,6.13
2022-11-15T20:47:34.819Z,8.13
2022-11-15T20:50:20.755Z,7.30
2022-11-15T20:52:47.219Z,10.27
2022-11-15T20:55:13.595Z,9.73
2022-11-15T20:57:39.756Z,8.27
2022-11-15T21:00:08.185Z,6.20
2022-11-15T21:02:34.435Z,7.77
2022-11-15T21:05:00.587Z,7.07
2022-11-15T21:07:26.785Z,5.10
2022-11-15T21:10:11.456Z,6.40
2022-11-15T21:12:37.659Z,4.67
2022-11-15T21:15:04.579Z,9.07
2022-11-15T21:17:31.555Z,7.07
2022-11-15T21:19:57.684Z,7.03
2022-11-15T21:22:23.884Z,8.17
2022-11-15T21:24:50.046Z,7.13
2022-11-15T21:27:16.261Z,5.53
2022-11-15T21:29:44.905Z,6.73
2022-11-15T21:32:11.303Z,8.37
2022-11-15T21:34:38.111Z,5.50
2022-11-15T21:37:04.891Z,5.60
2022-11-15T21:39:31.043Z,7.30
2022-11-15T21:41:57.394Z,6.27
2022-11-15T21:44:23.741Z,7.57
2022-11-15T21:46:50.631Z,6.73
2022-11-15T21:49:16.960Z,5.33
2022-11-15T21:51:43.746Z,6.93
2022-11-15T21:54:10.088Z,7.90
2022-11-15T21:56:36.232Z,6.57
2022-11-15T21:59:02.419Z,5.77
2022-11-15T22:01:47.127Z,8.53
2022-11-15T22:04:13.755Z,6.10
2022-11-15T22:06:39.948Z,6.83
2022-11-15T22:09:07.212Z,7.67
2022-11-15T22:11:33.410Z,7.23
2022-11-15T22:13:59.810Z,5.57
2022-11-15T22:16:25.959Z,5.03
2022-11-15T22:18:52.252Z,6.43
2022-11-15T22:21:18.941Z,5.63
2022-11-15T22:23:45.521Z,6.07
2022-11-15T22:26:14.955Z,4.37
2022-11-15T22:28:43.183Z,4.10
2022-11-15T22:31:10.121Z,6.53
2022-11-15T22:33:36.532Z,6.77
2022-11-15T22:36:03.599Z,5.57
2022-11-15T22:38:30.050Z,5.63
2022-11-15T22:40:56.819Z,4.57
2022-11-15T22:43:25.333Z,4.20
2022-11-15T22:45:52.540Z,6.30
2022-11-15T22:48:19.123Z,5.40
2022-11-15T22:50:45.404Z,7.10
2022-11-15T22:53:12.022Z,7.77
2022-11-15T22:55:38.413Z,6.03
2022-11-15T22:58:04.677Z,5.53
2022-11-15T23:00:31.568Z,4.93
2022-11-15T23:02:57.829Z,4.43
2022-11-15T23:05:24.071Z,4.77
2022-11-15T23:07:50.265Z,4.63
2022-11-15T23:10:35.079Z,5.87
2022-11-15T23:13:18.352Z,7.83
2022-11-15T23:16:04.934Z,3.73
2022-11-15T23:18:34.009Z,6.90
2022-11-15T23:21:07.823Z,6.57
2022-11-15T23:23:34.510Z,7.70
2022-11-15T23:26:00.807Z,7.00
2022-11-15T23:28:27.007Z,5.17
2022-11-15T23:31:11.956Z,4.40
2022-11-15T23:33:56.768Z,5.30
2022-11-15T23:36:23.088Z,4.70
2022-11-15T23:38:49.343Z,7.43
2022-11-15T23:41:15.707Z,4.47
2022-11-15T23:43:41.976Z,5.37
2022-11-15T23:46:08.883Z,4.63
2022-11-15T23:48:35.599Z,12.07
2022-11-15T23:51:02.043Z,5.73
2022-11-15T23:53:28.297Z,5.13
2022-11-15T23:55:55.540Z,4.53
2022-11-15T23:58:21.907Z,6.67
